Evington, VA (24550)

3:16 AM EST on February 10, 2016 (GMT -0500)
Oak Grove Subdivision | | Change Station
CLOSE
Current Station
Personal Weather Station
Location: Rustburg, VA
Elevation: 968 ft
Nearby Weather Stations

Elev 968 ft 37.26 °N, 79.17 °W | Updated 5 minutes ago

Clear
Clear
21.4 °F
Feels Like 21 °F
N
0.0
Wind Variable Wind from SW

Today
High -- | Low -- °F
--% Chance of Precip.
Yesterday
High -- | Low -- °F
Precip. -- in
Pressure 29.78 in
Visibility 10.0 miles
Clouds Clear
Windchill 21 °F
Dew Point 12 °F
Humidity 68%
Rainfall 0.00 in
Snow Depth Not available.
7:11 AM 5:50 PM
Waxing Crescent, 4% visible
METAR KLYH 100754Z AUTO 00000KT 10SM CLR M04/M12 A2976 RMK AO2 SLP084 T10441117
Pressure 29.78 in
Visibility 10.0 miles
Clouds Clear
Windchill 21 °F
Dew Point 12 °F
Humidity 68%
Rainfall 0.00 in
Snow Depth Not available.
7:11 AM 5:50 PM
Waxing Crescent, 4% visible
METAR KLYH 100754Z AUTO 00000KT 10SM CLR M04/M12 A2976 RMK AO2 SLP084 T10441117

10-Day Weather Forecast

Almanac

Astronomy

Feb. 10, 2016 Rise Set
Actual Time
Civil Twilight
Nautical Twilight
Astronomical Twilight
Moon
Length of Visible Light
Length of Day
Tomorrow will be .
, % of the Moon is Illuminated

Today's Extremes

State Highs State Lows

Community

WunderPhotos

Upload Photos

1,891,826 photos uploaded!

WunderBlog® & News

Nearby

Air Quality

  Air Quality AQ Index Pollutant
Not available.

Snow Depth

Station Depth Elevation

Earthquake Activity

City Distance Mag. Time & Date
Minimum magnitude displayed is 2.5.

Coastal Water Temperatures

Place Temperature

Stations

Nearby Weather Stations

Station Location Temp. Windchill Dew Point Humidity Wind Precip. Elev Updated Type
                   

Watches & Warnings

There are currently no watches in effect.